Hovedside
METAR-TAF:

METAR-TAF

Lufthavner :

Flystasjon

Linköping, Sverige

breddegrad: 58-24N, lengdegrad: 015-31E, høyde over havet: 93 m

Gjeldene værobservasjon

Denne rapporten ble laget for 37 minutter siden, klokken 22:20 UTC
Vind 8 kt fra Sør-sørvest
Temperatur 5°C
Luftfuktighet 100%
Trykk 1025 hPa
Sikt 10 km eller mer

METAR: ESCF 142220Z AUTO 21008KT 9999 NCD 05/05 Q1025

Tid: 23:57 (22:57 UTC)

Varsel

Denne rapporten ble laget for 5 timer og 27 minutter siden, klokken 17:30 UTC
Varsel gyldig fra 14. klokken 18 UTC til 14. klokken 21 UTC
Vind 10 kt fra Vest
Sikt 10 km eller mer
Brutte skyer i en høyde av 3000 ft
Midlertidig
fra 14. klokken 18 UTC til 14. klokken 21 UTC
Brutte skyer i en høyde av 1200 ft
Sannsynlighet 30%
fra 14. klokken 20 UTC til 14. klokken 21 UTC
Sikt: 4000 m
dis

TAF: ESCF 141730Z 1418/1421 26010KT 9999 BKN030 TEMPO 1418/1421 BKN012 PROB30 1420/1421 4000 BR RMK MIL

Værobservasjoner og værvarsel for over 4000 flyplasser (METAR- og TAF-rapporter).

Tilgjengelige stasjoner er representert av de røde og gule prikkene på kartet.

Hold musepekeren over prikken for å se navnet på stasjonen.

Klikk så for å se værobservasjoner og -varsler.

For å forandre kartet kan du klikke på den grønne knappen med svart kryss for å zoome inn, på den grønne knappen med strek for å zoome ut, eller på de grønne pilene for å se tilstøtende kart.


METAR-TAF: